Time;durP1;ratioP1;P1;durP2;ratioP2;P2;SDS_P1;SDS_P2;PMS_P1;PMS_P2;Temp;Humidity;BMP_temperature;BMP_pressure;BME280_temperature;BME280_humidity;BME280_pressure;Samples;Min_cycle;Max_cycle;Signal;HPM_P1;HPM_P2
2023/12/15 00:00:00;;;;;;;58.63;24.05;;;5.30;99.90;;;;;;5054563;28;20095;-19
2023/12/15 00:02:27;;;;;;;50.83;24.13;;;5.20;99.90;;;;;;5055821;28;20084;-20
2023/12/15 00:04:52;;;;;;;54.22;23.73;;;4.70;99.90;;;;;;5055735;28;20126;-19
2023/12/15 00:07:18;;;;;;;58.00;25.60;;;5.00;99.90;;;;;;5054573;28;20426;-19
2023/12/15 00:09:44;;;;;;;54.55;24.77;;;5.30;99.90;;;;;;5055671;28;20156;-20
2023/12/15 00:12:10;;;;;;;50.75;23.67;;;5.40;99.90;;;;;;5054649;28;20049;-19
2023/12/15 00:14:36;;;;;;;48.22;21.83;;;5.30;99.90;;;;;;5055570;28;20049;-19
2023/12/15 00:17:02;;;;;;;54.45;22.98;;;4.90;99.90;;;;;;5055568;28;20047;-19
2023/12/15 00:19:28;;;;;;;60.30;25.35;;;5.40;99.90;;;;;;5056025;28;20098;-19
2023/12/15 00:21:53;;;;;;;44.38;20.98;;;4.90;99.90;;;;;;5054485;28;20483;-19
2023/12/15 00:24:19;;;;;;;49.95;24.05;;;5.40;99.90;;;;;;5054544;28;20547;-19
2023/12/15 00:26:45;;;;;;;42.25;20.80;;;5.50;99.90;;;;;;5055384;28;20045;-18
2023/12/15 00:29:11;;;;;;;58.22;24.52;;;4.90;99.90;;;;;;5055344;28;20132;-19
2023/12/15 00:31:36;;;;;;;62.88;26.17;;;5.00;99.90;;;;;;5055292;28;20157;-18
2023/12/15 00:34:02;;;;;;;53.78;23.83;;;5.20;99.90;;;;;;5054046;28;20051;-18
2023/12/15 00:36:28;;;;;;;46.35;22.08;;;5.40;99.90;;;;;;5054816;28;20052;-19
2023/12/15 00:38:54;;;;;;;56.13;24.90;;;5.60;99.90;;;;;;5055067;28;20055;-18
2023/12/15 00:41:20;;;;;;;70.80;29.90;;;5.30;99.90;;;;;;5055643;28;20131;-18
2023/12/15 00:43:46;;;;;;;53.83;25.35;;;5.30;99.90;;;;;;5053926;28;20146;-18
2023/12/15 00:46:12;;;;;;;70.45;27.63;;;5.70;99.90;;;;;;5054666;28;20045;-18
2023/12/15 00:48:37;;;;;;;62.92;27.45;;;5.70;99.90;;;;;;5054907;28;20127;-18
2023/12/15 00:51:03;;;;;;;73.22;28.90;;;5.10;99.90;;;;;;5054886;28;20088;-18
2023/12/15 00:53:32;;;;;;;84.57;32.55;;;5.40;99.90;;;;;;5054830;28;20048;-18
2023/12/15 00:56:01;;;;;;;76.13;28.60;;;5.20;99.90;;;;;;5053613;28;20495;-18
2023/12/15 00:58:27;;;;;;;83.50;32.75;;;5.20;99.90;;;;;;5037362;28;20041;-18
2023/12/15 01:00:53;;;;;;;82.35;31.52;;;5.60;99.90;;;;;;5055232;28;20052;-18
2023/12/15 01:03:19;;;;;;;92.72;32.78;;;5.20;99.90;;;;;;5054618;28;20067;-18
2023/12/15 01:05:44;;;;;;;89.63;34.38;;;5.90;99.90;;;;;;5054844;28;20136;-18
2023/12/15 01:08:10;;;;;;;87.00;31.85;;;5.80;99.90;;;;;;5054608;28;20356;-18
2023/12/15 01:10:36;;;;;;;77.43;33.40;;;5.60;99.90;;;;;;5054535;28;20045;-18
2023/12/15 01:13:03;;;;;;;82.68;30.88;;;5.40;99.90;;;;;;5053370;28;20500;-18
2023/12/15 01:15:28;;;;;;;87.55;31.17;;;5.60;99.90;;;;;;5053185;28;20136;-18
2023/12/15 01:17:54;;;;;;;106.32;37.45;;;5.40;99.90;;;;;;5054207;28;20167;-18
2023/12/15 01:20:20;;;;;;;114.95;38.72;;;5.50;99.90;;;;;;5054278;28;20060;-18
2023/12/15 01:22:47;;;;;;;121.28;37.13;;;5.40;99.90;;;;;;5053923;28;20045;-18
2023/12/15 01:25:13;;;;;;;110.40;37.55;;;6.00;99.90;;;;;;5054115;28;20052;-18
2023/12/15 01:27:39;;;;;;;87.97;34.38;;;5.40;99.90;;;;;;5054226;28;20091;-18
2023/12/15 01:30:06;;;;;;;97.35;36.53;;;5.40;99.90;;;;;;5054134;28;20045;-18
2023/12/15 01:32:31;;;;;;;112.50;38.00;;;6.00;99.90;;;;;;5054321;28;20060;-18
2023/12/15 01:34:57;;;;;;;125.72;38.97;;;5.80;99.90;;;;;;5036101;28;20147;-18
2023/12/15 01:37:23;;;;;;;70.15;27.90;;;6.00;99.90;;;;;;5054052;28;20057;-18
2023/12/15 01:39:50;;;;;;;89.13;32.30;;;5.50;99.90;;;;;;5054759;28;20084;-18
2023/12/15 01:42:15;;;;;;;67.50;25.08;;;6.20;99.90;;;;;;5053987;28;20060;-18
2023/12/15 01:44:41;;;;;;;74.10;29.67;;;6.30;99.90;;;;;;5054748;28;20070;-18
2023/12/15 01:47:10;;;;;;;88.35;29.90;;;5.50;99.90;;;;;;5053843;28;20556;-18
2023/12/15 01:49:36;;;;;;;58.38;25.25;;;6.20;99.90;;;;;;5052943;28;20041;-18
2023/12/15 01:52:02;;;;;;;51.83;23.15;;;5.70;99.90;;;;;;5036285;28;20072;-18
2023/12/15 01:54:27;;;;;;;44.70;22.23;;;6.40;99.90;;;;;;5053074;28;20095;-18
2023/12/15 01:56:53;;;;;;;36.72;18.40;;;5.90;99.90;;;;;;5054024;28;20118;-18
2023/12/15 01:59:19;;;;;;;94.30;30.55;;;6.20;99.90;;;;;;5053650;28;20108;-18
2023/12/15 02:01:45;;;;;;;56.80;23.80;;;6.10;99.90;;;;;;5054253;28;20167;-18
2023/12/15 02:04:10;;;;;;;67.25;26.58;;;6.10;99.90;;;;;;5053685;28;20057;-18
2023/12/15 02:06:36;;;;;;;92.10;32.85;;;6.00;99.90;;;;;;5053882;28;20387;-18
2023/12/15 02:09:03;;;;;;;73.22;29.30;;;5.70;99.90;;;;;;5052941;28;20385;-18
2023/12/15 02:11:28;;;;;;;138.98;41.33;;;5.60;99.90;;;;;;5054143;28;20440;-18
2023/12/15 02:13:54;;;;;;;90.75;32.65;;;6.30;99.90;;;;;;5053583;28;20080;-18
2023/12/15 02:16:20;;;;;;;77.45;28.58;;;5.60;99.90;;;;;;5053525;28;20049;-18
2023/12/15 02:18:46;;;;;;;139.80;39.80;;;5.70;99.90;;;;;;5052020;28;20083;-18
2023/12/15 02:21:11;;;;;;;76.03;28.67;;;5.50;99.90;;;;;;5053481;28;20091;-18
2023/12/15 02:23:37;;;;;;;112.38;37.67;;;5.70;99.90;;;;;;5053995;28;20049;-18
2023/12/15 02:26:04;;;;;;;117.78;37.03;;;6.20;99.90;;;;;;5053393;28;20059;-18
2023/12/15 02:28:29;;;;;;;156.93;40.78;;;5.60;99.90;;;;;;5054238;28;20120;-18
2023/12/15 02:30:55;;;;;;;147.35;38.25;;;5.70;99.90;;;;;;5052704;28;20558;-18
2023/12/15 02:33:21;;;;;;;131.43;37.33;;;6.10;99.90;;;;;;5052230;28;20411;-18
2023/12/15 02:35:48;;;;;;;59.30;21.05;;;5.70;99.90;;;;;;5053363;28;20498;-18
2023/12/15 02:38:18;;;;;;;182.85;41.15;;;6.10;99.90;;;;;;5052647;28;20041;-18
2023/12/15 02:40:44;;;;;;;144.32;41.72;;;5.60;99.90;;;;;;5053356;28;20049;-18
2023/12/15 02:43:11;;;;;;;178.25;43.10;;;5.90;99.90;;;;;;5052104;28;20041;-18
2023/12/15 02:45:37;;;;;;;124.10;37.30;;;5.70;99.90;;;;;;5052083;28;20045;-18
2023/12/15 02:48:03;;;;;;;136.55;41.20;;;5.70;99.90;;;;;;5056535;28;20053;-18
2023/12/15 02:50:29;;;;;;;130.95;36.90;;;5.60;99.90;;;;;;5057147;28;20041;-18
2023/12/15 02:52:55;;;;;;;144.13;40.38;;;6.00;99.90;;;;;;5056496;28;20056;-18
2023/12/15 02:55:20;;;;;;;133.43;37.97;;;5.30;99.90;;;;;;5039305;28;20102;-18
2023/12/15 02:57:47;;;;;;;111.78;35.63;;;5.60;99.90;;;;;;5039750;28;20087;-18
2023/12/15 03:00:14;;;;;;;99.05;34.88;;;5.20;99.90;;;;;;5056934;28;20052;-18
2023/12/15 03:02:40;;;;;;;120.88;37.28;;;5.60;99.90;;;;;;5056024;28;20463;-18
2023/12/15 03:05:06;;;;;;;86.70;30.65;;;5.20;99.90;;;;;;5056950;28;20526;-18
2023/12/15 03:07:32;;;;;;;120.07;35.88;;;4.80;99.90;;;;;;5055632;28;20041;-18
2023/12/15 03:09:57;;;;;;;109.78;37.08;;;5.00;99.90;;;;;;5057618;28;20383;-18
2023/12/15 03:12:23;;;;;;;74.55;29.08;;;5.40;99.90;;;;;;5056765;28;20482;-18
2023/12/15 03:14:49;;;;;;;84.80;30.60;;;4.80;99.90;;;;;;5056714;28;20098;-17
2023/12/15 03:17:16;;;;;;;92.00;34.40;;;4.80;99.90;;;;;;5056047;28;20049;-18
2023/12/15 03:19:42;;;;;;;103.82;33.70;;;4.80;99.90;;;;;;5056392;28;20132;-18
2023/12/15 03:22:08;;;;;;;103.53;34.97;;;5.50;99.90;;;;;;5038719;28;20411;-18
2023/12/15 03:24:33;;;;;;;78.00;29.95;;;5.00;99.90;;;;;;5056464;28;20064;-17
2023/12/15 03:26:59;;;;;;;78.82;30.27;;;4.80;99.90;;;;;;5055247;28;20472;-18
2023/12/15 03:29:25;;;;;;;81.00;28.20;;;4.60;99.90;;;;;;5056393;28;20052;-18
2023/12/15 03:31:51;;;;;;;95.05;34.15;;;5.30;99.90;;;;;;5055443;28;20041;-18
2023/12/15 03:34:17;;;;;;;81.65;32.50;;;5.20;99.90;;;;;;5055199;28;20048;-18
2023/12/15 03:36:42;;;;;;;84.40;31.25;;;5.00;99.90;;;;;;5056313;28;20055;-17
2023/12/15 03:39:09;;;;;;;83.45;31.50;;;4.50;99.90;;;;;;5056215;28;20040;-18
2023/12/15 03:41:35;;;;;;;77.88;30.85;;;5.00;99.90;;;;;;5057040;28;20053;-18
2023/12/15 03:44:01;;;;;;;88.07;32.58;;;4.60;99.90;;;;;;5056179;28;20399;-17
2023/12/15 03:46:26;;;;;;;107.53;37.20;;;4.50;99.90;;;;;;5054956;28;20095;-17
2023/12/15 03:48:52;;;;;;;105.00;35.55;;;4.50;99.90;;;;;;5056098;28;20044;-17
2023/12/15 03:51:18;;;;;;;111.30;35.70;;;4.50;99.90;;;;;;5054799;28;20048;-17
2023/12/15 03:53:44;;;;;;;90.95;34.85;;;5.30;99.90;;;;;;5055674;28;20127;-18
2023/12/15 03:56:10;;;;;;;77.72;30.95;;;4.80;99.90;;;;;;5055993;28;20041;-17
2023/12/15 03:58:36;;;;;;;111.22;36.55;;;5.40;99.90;;;;;;5054391;28;20049;-18
2023/12/15 04:01:02;;;;;;;95.43;31.77;;;4.70;99.90;;;;;;5054902;28;20471;-17
2023/12/15 04:03:28;;;;;;;97.28;33.67;;;5.10;99.90;;;;;;5055193;28;20124;-18
2023/12/15 04:05:54;;;;;;;81.88;31.05;;;4.40;99.90;;;;;;5055764;28;20132;-17
2023/12/15 04:08:19;;;;;;;89.43;31.35;;;4.60;99.90;;;;;;5054567;28;20041;-18
2023/12/15 04:10:45;;;;;;;86.68;31.05;;;4.60;99.90;;;;;;5055056;28;20045;-17
2023/12/15 04:13:11;;;;;;;68.13;27.60;;;5.10;99.90;;;;;;5055623;28;20095;-17
2023/12/15 04:15:38;;;;;;;72.07;26.35;;;5.20;99.90;;;;;;5054386;28;20136;-17
2023/12/15 04:18:04;;;;;;;80.97;30.13;;;4.50;99.90;;;;;;5055474;28;20482;-17
2023/12/15 04:20:30;;;;;;;71.25;28.10;;;5.20;99.90;;;;;;5054558;28;20107;-18
2023/12/15 04:22:56;;;;;;;96.75;30.77;;;4.30;99.90;;;;;;5055515;28;20398;-17
2023/12/15 04:25:22;;;;;;;86.00;31.95;;;5.20;99.90;;;;;;5055386;28;20049;-17
2023/12/15 04:27:48;;;;;;;91.10;29.80;;;4.90;99.90;;;;;;5037594;28;20506;-17
2023/12/15 04:30:14;;;;;;;72.45;25.13;;;4.30;99.90;;;;;;5055359;28;20086;-17
2023/12/15 04:32:40;;;;;;;58.70;22.02;;;4.70;99.90;;;;;;5054341;28;20124;-17
2023/12/15 04:35:06;;;;;;;83.88;25.90;;;4.90;99.90;;;;;;5055300;28;20052;-17
2023/12/15 04:37:32;;;;;;;58.33;24.08;;;5.20;99.90;;;;;;5037634;28;20203;-17
2023/12/15 04:39:58;;;;;;;84.90;28.90;;;5.50;99.90;;;;;;5053922;28;20550;-17
2023/12/15 04:42:23;;;;;;;62.58;21.65;;;4.70;99.90;;;;;;5054463;28;20131;-17
2023/12/15 04:44:49;;;;;;;71.85;24.38;;;4.60;99.90;;;;;;5055861;28;20052;-17
2023/12/15 04:47:15;;;;;;;58.38;23.05;;;5.30;99.90;;;;;;5054972;28;20398;-17
2023/12/15 04:49:41;;;;;;;69.28;23.83;;;5.30;99.90;;;;;;5053986;28;20049;-17
2023/12/15 04:52:06;;;;;;;69.43;23.52;;;5.10;99.90;;;;;;5037359;28;20052;-17
2023/12/15 04:54:32;;;;;;;63.70;23.38;;;5.20;99.90;;;;;;5053695;28;20053;-17
2023/12/15 04:56:58;;;;;;;60.75;21.77;;;4.30;99.90;;;;;;5053832;28;20056;-18
2023/12/15 04:59:24;;;;;;;71.00;22.70;;;4.20;99.90;;;;;;5036773;28;20044;-17
2023/12/15 05:01:50;;;;;;;73.72;22.42;;;4.30;99.90;;;;;;5054094;28;20044;-17
2023/12/15 05:04:16;;;;;;;75.35;23.02;;;5.00;99.90;;;;;;5053685;28;20041;-17
2023/12/15 05:06:41;;;;;;;63.72;23.20;;;4.50;99.90;;;;;;5054645;28;20052;-17
2023/12/15 05:09:09;;;;;;;52.20;19.95;;;4.90;99.90;;;;;;5053102;28;20053;-17
2023/12/15 05:11:35;;;;;;;73.25;22.65;;;4.20;99.90;;;;;;5054205;28;20465;-18
2023/12/15 05:14:01;;;;;;;70.57;21.48;;;4.60;99.90;;;;;;5055321;28;20045;-17
2023/12/15 05:16:30;;;;;;;81.43;23.02;;;4.50;99.90;;;;;;5037049;28;20049;-17
2023/12/15 05:18:56;;;;;;;56.88;19.88;;;4.80;99.90;;;;;;5054379;28;20136;-17
2023/12/15 05:21:22;;;;;;;64.13;20.35;;;4.30;99.90;;;;;;5053692;28;20127;-17
2023/12/15 05:23:48;;;;;;;53.05;18.15;;;4.40;99.90;;;;;;5036765;28;20086;-17
2023/12/15 05:26:14;;;;;;;58.00;20.13;;;4.40;99.90;;;;;;5054155;28;20060;-17
2023/12/15 05:28:40;;;;;;;70.40;21.10;;;4.80;99.90;;;;;;5054268;28;20123;-17
2023/12/15 05:31:07;;;;;;;67.63;20.08;;;4.90;99.90;;;;;;5053022;28;20131;-18
2023/12/15 05:33:32;;;;;;;79.13;20.00;;;4.30;99.90;;;;;;5054129;28;20074;-17
2023/12/15 05:35:58;;;;;;;68.28;19.50;;;4.20;99.90;;;;;;5054384;28;20044;-18
2023/12/15 05:38:24;;;;;;;64.68;19.75;;;5.10;99.90;;;;;;5053997;28;20479;-17
2023/12/15 05:40:52;;;;;;;63.60;18.48;;;4.10;99.90;;;;;;5052856;28;20048;-18
2023/12/15 05:43:18;;;;;;;63.38;18.55;;;4.70;99.90;;;;;;5053954;28;20048;-18
2023/12/15 05:45:44;;;;;;;68.38;19.95;;;5.10;99.90;;;;;;5053912;28;20071;-18
2023/12/15 05:48:10;;;;;;;75.07;18.40;;;4.20;99.90;;;;;;5053892;28;20041;-18
2023/12/15 05:50:35;;;;;;;62.25;19.13;;;4.80;99.90;;;;;;5053861;28;20049;-18
2023/12/15 05:53:02;;;;;;;53.60;17.48;;;4.30;99.90;;;;;;5053797;28;20067;-17
2023/12/15 05:55:28;;;;;;;53.58;16.35;;;5.10;99.90;;;;;;5053769;28;20053;-18
2023/12/15 05:57:53;;;;;;;49.42;16.60;;;4.30;99.90;;;;;;5019827;28;20048;-17
2023/12/15 06:00:19;;;;;;;56.78;18.08;;;5.20;99.90;;;;;;5053607;28;20084;-17
2023/12/15 06:02:45;;;;;;;60.38;18.42;;;4.20;99.90;;;;;;5053698;28;20123;-17
2023/12/15 06:05:11;;;;;;;61.20;18.08;;;5.10;99.90;;;;;;5035946;28;20094;-17
2023/12/15 06:07:37;;;;;;;64.70;16.88;;;4.10;99.90;;;;;;5053311;28;20048;-17
2023/12/15 06:10:03;;;;;;;62.03;17.92;;;5.00;99.90;;;;;;5052682;28;20122;-17
2023/12/15 06:12:28;;;;;;;67.38;17.98;;;5.00;99.90;;;;;;5053862;28;20445;-17
2023/12/15 06:14:54;;;;;;;51.20;12.45;;;5.00;99.90;;;;;;5052893;28;20479;-17
2023/12/15 06:17:20;;;;;;;58.88;15.20;;;4.10;99.90;;;;;;5053553;28;20124;-17
2023/12/15 06:19:46;;;;;;;54.78;15.20;;;4.10;99.90;;;;;;5031971;28;20045;-17
2023/12/15 06:22:12;;;;;;;43.25;13.00;;;4.80;99.90;;;;;;5038567;28;20057;-17
2023/12/15 06:24:37;;;;;;;77.07;15.90;;;5.10;99.90;;;;;;5038552;28;20049;-18
2023/12/15 06:27:03;;;;;;;56.75;13.05;;;4.80;99.90;;;;;;5038904;28;20049;-17
2023/12/15 06:29:29;;;;;;;52.35;14.95;;;5.00;99.90;;;;;;5038947;28;20042;-17
2023/12/15 06:31:55;;;;;;;44.45;12.23;;;4.30;99.90;;;;;;5022518;28;20041;-17
2023/12/15 06:34:21;;;;;;;38.10;10.60;;;5.30;99.90;;;;;;5039120;28;20387;-17
2023/12/15 06:36:46;;;;;;;43.50;9.85;;;4.80;99.90;;;;;;5040079;28;20052;-17
2023/12/15 06:39:13;;;;;;;48.55;11.20;;;4.30;99.90;;;;;;5039939;28;20049;-17
2023/12/15 06:41:39;;;;;;;53.22;12.73;;;5.30;99.90;;;;;;5039987;28;20053;-17
2023/12/15 06:44:05;;;;;;;46.80;9.88;;;5.10;99.90;;;;;;5039674;28;20097;-17
2023/12/15 06:46:34;;;;;;;50.35;10.23;;;4.40;99.90;;;;;;5039885;28;20495;-17
2023/12/15 06:49:00;;;;;;;40.83;9.25;;;4.30;99.90;;;;;;5039939;28;20167;-17
2023/12/15 06:51:26;;;;;;;47.05;10.30;;;5.10;99.90;;;;;;5039202;28;20079;-17
2023/12/15 06:53:52;;;;;;;48.58;11.57;;;3.90;99.90;;;;;;5038729;28;20099;-17
2023/12/15 06:56:18;;;;;;;36.65;9.38;;;3.70;99.90;;;;;;5040398;28;20041;-17
2023/12/15 06:58:44;;;;;;;53.30;11.45;;;4.20;99.90;;;;;;5022316;28;20057;-17
2023/12/15 07:01:09;;;;;;;49.85;9.93;;;4.00;99.90;;;;;;5039842;28;20091;-17
2023/12/15 07:03:35;;;;;;;45.00;9.55;;;3.90;99.90;;;;;;5039834;28;20037;-17
2023/12/15 07:06:01;;;;;;;53.25;10.45;;;4.10;99.90;;;;;;5022890;28;20056;-18
2023/12/15 07:08:27;;;;;;;45.47;9.60;;;3.70;99.90;;;;;;5039719;28;20480;-17
2023/12/15 07:10:53;;;;;;;64.53;10.25;;;3.80;99.90;;;;;;5039678;28;20119;-17
2023/12/15 07:13:19;;;;;;;43.63;7.35;;;3.80;99.90;;;;;;5039705;28;20056;-17
2023/12/15 07:15:44;;;;;;;38.95;8.32;;;3.50;99.90;;;;;;5006000;28;20049;-17
2023/12/15 07:18:10;;;;;;;41.67;8.90;;;4.30;99.90;;;;;;5045938;28;20119;-17
2023/12/15 07:20:36;;;;;;;41.72;8.13;;;4.60;99.90;;;;;;5059502;28;20052;-17
2023/12/15 07:23:02;;;;;;;41.35;9.15;;;4.50;99.90;;;;;;5059620;28;20541;-17
2023/12/15 07:25:27;;;;;;;53.20;10.25;;;4.30;99.90;;;;;;5058329;28;20090;-17
2023/12/15 07:27:53;;;;;;;35.03;5.88;;;5.20;99.90;;;;;;5025470;28;20098;-17
2023/12/15 07:30:20;;;;;;;44.65;8.40;;;4.50;99.90;;;;;;5042689;28;20068;-17
2023/12/15 07:32:46;;;;;;;46.47;7.80;;;4.40;99.90;;;;;;5039278;28;20498;-17
2023/12/15 07:35:12;;;;;;;41.17;7.35;;;4.80;99.90;;;;;;5056053;28;20170;-17
2023/12/15 07:37:38;;;;;;;48.33;10.30;;;4.20;99.90;;;;;;5038278;28;20045;-17
2023/12/15 07:40:04;;;;;;;34.58;6.80;;;4.10;99.90;;;;;;5056100;28;20045;-17
2023/12/15 07:42:31;;;;;;;44.42;7.20;;;4.20;99.90;;;;;;5054833;28;20044;-17
2023/12/15 07:44:58;;;;;;;34.10;7.13;;;4.30;99.90;;;;;;5054545;28;20487;-17
2023/12/15 07:47:24;;;;;;;39.78;7.53;;;4.30;99.90;;;;;;5055149;28;20135;-17
2023/12/15 07:49:50;;;;;;;36.33;7.47;;;4.40;99.90;;;;;;5056738;28;20045;-17
2023/12/15 07:52:15;;;;;;;35.53;6.85;;;5.20;99.90;;;;;;5055924;28;20056;-17
2023/12/15 07:54:41;;;;;;;26.42;6.50;;;5.30;99.90;;;;;;5054742;28;20080;-17
2023/12/15 07:57:07;;;;;;;34.80;7.25;;;5.20;99.90;;;;;;5054741;28;20053;-17
2023/12/15 07:59:36;;;;;;;39.42;7.93;;;5.20;99.90;;;;;;5054592;28;20134;-17
2023/12/15 08:02:03;;;;;;;38.40;8.02;;;4.30;99.90;;;;;;5055120;28;20045;-17
2023/12/15 08:04:29;;;;;;;40.15;8.50;;;4.10;99.90;;;;;;5055692;28;20052;-17
2023/12/15 08:06:54;;;;;;;37.05;8.05;;;5.10;99.90;;;;;;5055645;28;20063;-17
2023/12/15 08:09:20;;;;;;;34.47;6.60;;;5.10;99.90;;;;;;5054667;28;20077;-18
2023/12/15 08:11:46;;;;;;;35.63;7.03;;;5.20;99.90;;;;;;5054587;28;20048;-17
2023/12/15 08:14:12;;;;;;;36.38;7.03;;;5.30;99.90;;;;;;5054668;28;20122;-17
2023/12/15 08:16:37;;;;;;;41.45;8.48;;;5.20;99.90;;;;;;5056041;28;20360;-17
2023/12/15 08:19:05;;;;;;;44.25;7.35;;;4.60;99.90;;;;;;5053948;28;20056;-17
2023/12/15 08:21:31;;;;;;;41.08;7.05;;;5.20;99.90;;;;;;5054307;28;20494;-17
2023/12/15 08:23:57;;;;;;;32.88;6.22;;;5.30;99.90;;;;;;5037673;28;20049;-18
2023/12/15 08:26:27;;;;;;;40.50;6.80;;;5.50;99.90;;;;;;5054085;28;20168;-17
2023/12/15 08:28:54;;;;;;;45.45;8.10;;;4.80;99.90;;;;;;5055303;28;20049;-17
2023/12/15 08:31:20;;;;;;;43.63;7.15;;;4.90;99.90;;;;;;5055537;28;20102;-20
2023/12/15 08:33:46;;;;;;;47.75;6.72;;;5.20;99.90;;;;;;5055095;28;20048;-17
2023/12/15 08:36:12;;;;;;;44.63;7.00;;;5.20;99.90;;;;;;5055146;28;20048;-17
2023/12/15 08:38:38;;;;;;;41.85;6.90;;;4.40;99.90;;;;;;5055071;28;20550;-18
2023/12/15 08:41:04;;;;;;;33.15;6.75;;;5.00;99.90;;;;;;5053927;28;20053;-18
2023/12/15 08:43:30;;;;;;;37.30;7.15;;;4.80;99.90;;;;;;5054492;28;20084;-18
2023/12/15 08:45:56;;;;;;;39.15;5.57;;;4.60;99.90;;;;;;5054311;28;20087;-17
2023/12/15 08:48:22;;;;;;;36.08;7.25;;;5.10;99.90;;;;;;5054874;28;20049;-17
2023/12/15 08:50:47;;;;;;;33.72;6.82;;;5.30;99.90;;;;;;5037230;28;20109;-17
2023/12/15 08:53:15;;;;;;;35.90;8.07;;;4.70;99.90;;;;;;5053615;28;20089;-18
2023/12/15 08:55:41;;;;;;;31.52;5.72;;;5.20;99.90;;;;;;5036547;28;20052;-17
2023/12/15 08:58:07;;;;;;;34.20;7.60;;;4.70;99.90;;;;;;5004725;28;20053;-17
2023/12/15 09:00:32;;;;;;;49.72;7.75;;;5.00;99.90;;;;;;5037680;28;20049;-17
2023/12/15 09:02:58;;;;;;;26.63;6.38;;;5.50;99.90;;;;;;5054658;28;20063;-18
2023/12/15 09:05:24;;;;;;;35.30;6.45;;;5.60;99.90;;;;;;5054537;28;20218;-18
2023/12/15 09:07:51;;;;;;;31.63;6.40;;;5.30;99.90;;;;;;5054449;28;20114;-18
2023/12/15 09:10:18;;;;;;;38.58;7.22;;;4.70;99.90;;;;;;5054455;28;20138;-17
2023/12/15 09:12:44;;;;;;;51.10;8.23;;;4.90;99.90;;;;;;5054924;28;20048;-17
2023/12/15 09:15:10;;;;;;;24.50;5.47;;;5.10;99.90;;;;;;5054371;28;20136;-17
2023/12/15 09:17:36;;;;;;;33.67;7.20;;;4.80;99.90;;;;;;5054186;28;20124;-17
2023/12/15 09:20:03;;;;;;;21.90;5.07;;;5.10;99.90;;;;;;5054847;28;20128;-17
2023/12/15 09:22:30;;;;;;;25.92;6.15;;;5.10;99.90;;;;;;5052881;28;20084;-18
2023/12/15 09:24:56;;;;;;;32.20;6.68;;;5.00;99.90;;;;;;5053094;28;20049;-17
2023/12/15 09:27:21;;;;;;;39.75;7.00;;;5.30;99.90;;;;;;5053950;28;20111;-17
2023/12/15 09:29:47;;;;;;;34.30;6.10;;;5.20;99.90;;;;;;5054298;28;20127;-17
2023/12/15 09:32:13;;;;;;;29.85;5.40;;;5.50;99.90;;;;;;5054088;28;20088;-17
2023/12/15 09:34:39;;;;;;;34.35;6.68;;;5.10;99.90;;;;;;5052845;28;20088;-17
2023/12/15 09:37:04;;;;;;;50.88;6.57;;;5.10;99.90;;;;;;5054015;28;20110;-17
2023/12/15 09:39:30;;;;;;;34.58;6.78;;;5.60;99.90;;;;;;5036658;28;20407;-18
2023/12/15 09:41:56;;;;;;;44.33;7.25;;;5.50;99.90;;;;;;5036365;28;20522;-17
2023/12/15 09:44:22;;;;;;;37.40;7.18;;;5.60;99.90;;;;;;5054437;28;20400;-17
2023/12/15 09:46:48;;;;;;;37.10;7.00;;;5.50;99.90;;;;;;5054603;28;20431;-17
2023/12/15 09:49:18;;;;;;;44.17;5.97;;;5.80;99.90;;;;;;5052616;28;20041;-17
2023/12/15 09:51:52;;;;;;;47.00;6.50;;;5.80;99.90;;;;;;5052541;28;20053;-17
2023/12/15 09:54:19;;;;;;;24.52;6.53;;;6.10;99.90;;;;;;5053499;28;20045;-17
2023/12/15 09:56:48;;;;;;;26.67;5.38;;;5.90;99.90;;;;;;5052066;28;20060;-17
2023/12/15 09:59:14;;;;;;;44.85;7.82;;;5.90;99.90;;;;;;5053458;28;20074;-17
2023/12/15 10:01:40;;;;;;;38.45;7.13;;;6.10;99.90;;;;;;5053582;28;20051;-18
2023/12/15 10:04:06;;;;;;;49.75;7.97;;;6.10;99.90;;;;;;5053552;28;20170;-17
2023/12/15 10:06:36;;;;;;;34.10;6.60;;;6.20;99.90;;;;;;5053514;28;20076;-17
2023/12/15 10:09:11;;;;;;;46.55;7.72;;;6.40;99.90;;;;;;5052548;28;20048;-18
2023/12/15 10:11:37;;;;;;;43.70;8.05;;;6.40;99.90;;;;;;5054342;28;20041;-17
2023/12/15 10:14:04;;;;;;;31.48;5.45;;;6.40;99.90;;;;;;5052361;28;20450;-17
2023/12/15 10:16:31;;;;;;;40.90;7.63;;;6.30;99.90;;;;;;5035884;28;20045;-17
2023/12/15 10:18:57;;;;;;;39.20;8.45;;;6.40;99.90;;;;;;5035177;28;20457;-17
2023/12/15 10:21:23;;;;;;;35.53;6.07;;;6.40;99.90;;;;;;5053942;28;20095;-18
2023/12/15 10:23:49;;;;;;;31.98;6.88;;;6.50;99.90;;;;;;5053878;28;20045;-17
2023/12/15 10:26:14;;;;;;;41.47;7.22;;;6.50;99.90;;;;;;5035483;28;20049;-18
2023/12/15 10:28:41;;;;;;;37.10;7.35;;;6.60;99.90;;;;;;5053289;28;20095;-18
2023/12/15 10:31:08;;;;;;;32.78;7.13;;;6.60;99.90;;;;;;5052148;28;20483;-17
2023/12/15 10:33:34;;;;;;;29.88;5.93;;;6.60;99.90;;;;;;5052061;28;20056;-17
2023/12/15 10:36:01;;;;;;;42.72;8.52;;;6.70;99.90;;;;;;5052596;28;20052;-17
2023/12/15 10:38:30;;;;;;;30.35;6.15;;;6.70;99.90;;;;;;5053204;28;20443;-17
2023/12/15 10:41:00;;;;;;;33.83;5.95;;;6.80;99.90;;;;;;5053206;28;20079;-18
2023/12/15 10:43:27;;;;;;;43.45;7.53;;;6.80;99.90;;;;;;5053321;28;20094;-17
2023/12/15 10:45:54;;;;;;;34.05;7.70;;;6.80;99.90;;;;;;5051990;28;20053;-17
2023/12/15 10:48:20;;;;;;;33.28;7.22;;;6.90;99.90;;;;;;5052178;28;20509;-17
2023/12/15 10:50:46;;;;;;;51.58;7.78;;;6.90;99.90;;;;;;5053217;28;20091;-18
2023/12/15 10:53:15;;;;;;;37.42;6.90;;;7.00;99.90;;;;;;5053102;28;20083;-17
2023/12/15 10:55:46;;;;;;;38.75;7.55;;;7.10;99.90;;;;;;5053049;28;20155;-17
2023/12/15 10:58:13;;;;;;;43.28;6.35;;;7.10;99.90;;;;;;5053832;28;20040;-17
2023/12/15 11:00:39;;;;;;;27.30;6.28;;;7.10;99.90;;;;;;5035255;28;20052;-17
2023/12/15 11:03:10;;;;;;;50.80;8.38;;;7.20;99.90;;;;;;5052980;28;20053;-17
2023/12/15 11:05:39;;;;;;;29.08;6.30;;;7.30;99.90;;;;;;5053030;28;20064;-17
2023/12/15 11:08:06;;;;;;;40.33;6.47;;;7.30;99.90;;;;;;5053920;28;20132;-17
2023/12/15 11:10:32;;;;;;;37.05;7.50;;;7.40;99.90;;;;;;5057236;28;20111;-18
2023/12/15 11:12:58;;;;;;;37.92;7.15;;;7.50;99.90;;;;;;5056501;28;20045;-17
2023/12/15 11:15:26;;;;;;;34.20;6.45;;;7.60;99.90;;;;;;5056591;28;20064;-17
2023/12/15 11:17:57;;;;;;;25.08;5.82;;;7.60;99.90;;;;;;5039976;28;20048;-18
2023/12/15 11:20:25;;;;;;;33.50;5.88;;;7.70;99.90;;;;;;5057027;28;20088;-18
2023/12/15 11:23:04;;;;;;;31.90;8.43;;;7.80;99.90;;;;;;5055977;28;20379;-17
2023/12/15 11:25:32;;;;;;;28.98;5.70;;;7.90;99.90;;;;;;5056836;28;20048;-17
2023/12/15 11:28:05;;;;;;;40.05;6.50;;;7.90;99.90;;;;;;5056510;28;20128;-17
2023/12/15 11:30:44;;;;;;;31.42;6.07;;;8.00;99.90;;;;;;5056959;28;20059;-17
2023/12/15 11:33:32;;;;;;;34.58;6.53;;;8.00;99.90;;;;;;5055353;28;20045;-18
2023/12/15 11:36:00;;;;;;;26.73;5.65;;;8.00;99.90;;;;;;5056213;28;20049;-18
2023/12/15 11:38:27;;;;;;;38.80;7.15;;;8.10;99.90;;;;;;5056901;28;20084;-18
2023/12/15 11:40:53;;;;;;;43.35;6.88;;;8.10;99.90;;;;;;5038503;28;20052;-18
2023/12/15 11:43:19;;;;;;;35.47;6.40;;;8.10;99.90;;;;;;5056190;28;20049;-17
2023/12/15 11:45:46;;;;;;;42.40;6.82;;;8.10;99.90;;;;;;5054811;28;20128;-18
2023/12/15 11:48:12;;;;;;;34.30;6.47;;;8.10;99.90;;;;;;5038581;28;20131;-17
2023/12/15 11:50:41;;;;;;;38.50;6.90;;;8.10;99.90;;;;;;5056009;28;20041;-17
2023/12/15 11:53:09;;;;;;;31.27;6.72;;;8.20;99.90;;;;;;5055936;28;20053;-17
2023/12/15 11:55:36;;;;;;;34.05;6.07;;;8.20;99.90;;;;;;5038229;28;20513;-18
2023/12/15 11:58:02;;;;;;;32.30;6.10;;;8.30;99.90;;;;;;5055863;28;20159;-17
2023/12/15 12:00:30;;;;;;;36.88;5.47;;;8.40;99.90;;;;;;5038520;28;20123;-17
2023/12/15 12:02:57;;;;;;;36.83;5.03;;;8.40;99.90;;;;;;5056138;28;20392;-17
2023/12/15 12:05:22;;;;;;;34.03;5.82;;;8.50;99.90;;;;;;5055787;28;20049;-17
2023/12/15 12:07:48;;;;;;;31.65;6.13;;;8.50;99.90;;;;;;5055717;28;20049;-17
2023/12/15 12:10:15;;;;;;;26.52;5.95;;;8.40;99.90;;;;;;5055648;28;20052;-17
2023/12/15 12:12:41;;;;;;;31.83;5.72;;;8.30;99.90;;;;;;5055171;28;20495;-17
2023/12/15 12:15:11;;;;;;;31.73;6.25;;;8.20;99.90;;;;;;5055474;28;20088;-17
2023/12/15 12:17:38;;;;;;;30.73;5.22;;;8.20;99.90;;;;;;5054456;28;20549;-17
2023/12/15 12:20:11;;;;;;;39.30;7.05;;;8.10;99.90;;;;;;5055108;28;20048;-18
2023/12/15 12:22:44;;;;;;;30.90;7.03;;;8.10;99.90;;;;;;5056261;28;20055;-17
2023/12/15 12:25:11;;;;;;;36.00;6.13;;;8.10;99.90;;;;;;5054344;28;20088;-17
2023/12/15 12:27:38;;;;;;;46.53;8.35;;;8.10;99.90;;;;;;5055092;28;20526;-17
2023/12/15 12:30:13;;;;;;;26.00;5.88;;;8.10;99.90;;;;;;5055762;28;20451;-18
2023/12/15 12:32:40;;;;;;;35.20;6.97;;;8.10;99.90;;;;;;5055268;28;20049;-17
2023/12/15 12:35:06;;;;;;;36.50;6.82;;;8.10;99.90;;;;;;5055096;28;20048;-17